»·PEaware :: N19063 KSBD-KEMT

N19063 :: KSBD-KEMT

FLIGHT INFORMATION

Flight Status: Arrived
Operator: Privately registered:
United States
More flights under this callsign
Pilot: Austin L. (19194)
Aircraft: CESSNA 172 SKYHAWK
(C172)
More flights by this aircraft type
Origin: KSBD San Bernardino Intl
United States
Destination: KEMT El Monte
United States
More flights between these airports :: More routes between these airports
Route: KSBD DCT KEMT
File this flight plan on PilotEdge
Remarks:
Altitude:
(Current/Filed)
4,500ft
Speed:
(Current/Filed)
120kts
Departed: 18-Sep-18 08:15 PM
Arrived: 18-Sep-18 08:39 PM
Distance/Time
Traveled:
40nm/0:24
Distance/Time
To Go:
Arrived

Flight Plot

Page will automatically refresh every two minutes.

Flight plan parsing failed; only flown route is shown


Map Options




Map Legend


Flown Route
Filed Route
Departure Airport
Arrival Airport
Navaid (VOR, NDB)
Fix

Horizontal Profiles

Position Reports

Time Latitude Longitude Heading Altitude Ground
Speed
18-Sep-18 19:46 34.104464 -117.245821 286 1098ft 0kts
18-Sep-18 19:47 34.104464 -117.245821 286 1098ft 0kts
18-Sep-18 19:48 34.104464 -117.245821 286 1098ft 0kts
18-Sep-18 19:56 34.104464 -117.245821 286 1098ft 0kts
18-Sep-18 19:57 34.104464 -117.245821 286 1098ft 0kts
18-Sep-18 19:58 34.104464 -117.245821 286 1098ft 0kts
18-Sep-18 19:59 34.104464 -117.245821 286 1098ft 0kts
18-Sep-18 20:00 34.104464 -117.245822 286 1098ft 0kts
18-Sep-18 20:01 34.104464 -117.245822 286 1098ft 0kts
18-Sep-18 20:02 34.104464 -117.245822 286 1098ft 0kts
18-Sep-18 20:03 34.104464 -117.245822 286 1098ft 0kts
18-Sep-18 20:04 34.104464 -117.245822 286 1098ft 0kts
18-Sep-18 20:05 34.104464 -117.245822 286 1098ft 0kts
18-Sep-18 20:06 34.104464 -117.245822 286 1098ft 0kts
18-Sep-18 20:07 34.104464 -117.245822 286 1098ft 0kts
18-Sep-18 20:08 34.104464 -117.245822 286 1098ft 0kts
18-Sep-18 20:09 34.104402 -117.245845 98 1098ft 6kts
18-Sep-18 20:10 34.104375 -117.245688 105 1098ft 4kts
18-Sep-18 20:11 34.103089 -117.241023 111 1107ft 0kts
18-Sep-18 20:12 34.101967 -117.236499 108 1117ft 31kts
18-Sep-18 20:13 34.099888 -117.227518 63 1137ft 15kts
18-Sep-18 20:14 34.101127 -117.221408 70 1153ft 17kts
18-Sep-18 20:15 34.100768 -117.219734 158 1159ft 0kts
18-Sep-18 20:16 34.099668 -117.219986 250 1158ft 0kts
18-Sep-18 20:17 34.095705 -117.233931 250 1387ft 90kts
18-Sep-18 20:18 34.093934 -117.261696 272 2389ft 82kts
18-Sep-18 20:19 34.094662 -117.295955 268 2517ft 110kts
18-Sep-18 20:20 34.094416 -117.333170 268 2517ft 111kts
18-Sep-18 20:21 34.094074 -117.370189 267 2517ft 111kts
18-Sep-18 20:22 34.093855 -117.407336 269 2514ft 110kts
18-Sep-18 20:23 34.093406 -117.444090 267 2623ft 107kts
18-Sep-18 20:24 34.092938 -117.477096 266 3408ft 93kts
18-Sep-18 20:25 34.092803 -117.507232 267 4194ft 87kts
18-Sep-18 20:26 34.092470 -117.540856 268 4385ft 109kts
18-Sep-18 20:27 34.092028 -117.576682 266 4383ft 105kts
18-Sep-18 20:28 34.091554 -117.611661 267 4381ft 104kts
18-Sep-18 20:29 34.091140 -117.646526 267 4383ft 104kts
18-Sep-18 20:30 34.090725 -117.681364 267 4388ft 105kts
18-Sep-18 20:31 34.090310 -117.716899 267 4203ft 107kts
18-Sep-18 20:32 34.089884 -117.750797 267 4400ft 106kts
18-Sep-18 20:33 34.089442 -117.787567 267 4402ft 109kts
18-Sep-18 20:34 34.088948 -117.824602 267 4031ft 111kts
18-Sep-18 20:35 34.088455 -117.862044 267 3531ft 112kts
18-Sep-18 20:36 34.087929 -117.899786 267 3029ft 113kts
18-Sep-18 20:37 34.087401 -117.937463 267 2530ft 112kts
18-Sep-18 20:38 34.086868 -117.974758 266 2027ft 111kts
18-Sep-18 20:39 34.095930 -118.007527 309 1456ft 86kts
18-Sep-18 20:40 34.098227 -118.027811 207 600ft 65kts
18-Sep-18 20:41 34.085583 -118.034800 175 286ft 16kts
18-Sep-18 20:42 34.084303 -118.034735 120 286ft 8kts
18-Sep-18 20:43 34.084339 -118.034351 26 287ft 0kts
18-Sep-18 20:44 34.084339 -118.034351 26 287ft 0kts
18-Sep-18 20:45 34.084339 -118.034351 26 287ft 0kts

Navigation Log

Ident Type
Flight plan parsing failed, navigation log unavailable